Time;durP1;ratioP1;P1;durP2;ratioP2;P2;SDS_P1;SDS_P2;PMS_P1;PMS_P2;Temp;Humidity;BMP_temperature;BMP_pressure;BME280_temperature;BME280_humidity;BME280_pressure;Samples;Min_cycle;Max_cycle;Signal;HPM_P1;HPM_P2
2022/06/19 00:01:02;;;;;;;8.47;3.50;;;18.00;66.10;;;;;;4181251;28;20640;-70
2022/06/19 00:03:06;;;;;;;9.23;3.60;;;18.00;65.50;;;;;;4180871;28;20183;-70
2022/06/19 00:05:07;;;;;;;9.63;3.30;;;18.00;64.80;;;;;;4179321;28;20184;-70
2022/06/19 00:07:09;;;;;;;13.07;3.93;;;18.00;64.40;;;;;;4181068;28;20238;-70
2022/06/19 00:09:09;;;;;;;9.83;3.60;;;18.00;64.10;;;;;;4181258;28;20614;-70
2022/06/19 00:11:11;;;;;;;17.07;4.13;;;18.00;64.90;;;;;;4181172;28;20187;-70
2022/06/19 00:13:12;;;;;;;8.77;3.17;;;18.00;64.90;;;;;;4180878;28;20591;-70
2022/06/19 00:15:12;;;;;;;11.57;3.20;;;18.00;64.90;;;;;;4181442;28;20223;-70
2022/06/19 00:17:16;;;;;;;9.03;3.57;;;18.00;64.50;;;;;;4180707;28;20176;-70
2022/06/19 00:19:17;;;;;;;10.63;3.53;;;17.90;64.20;;;;;;4181327;28;20172;-70
2022/06/19 00:21:18;;;;;;;10.30;4.00;;;17.90;64.70;;;;;;4181008;28;20267;-69
2022/06/19 00:23:19;;;;;;;8.67;3.97;;;17.80;65.10;;;;;;4181646;28;20550;-70
2022/06/19 00:25:19;;;;;;;9.27;3.10;;;17.90;65.30;;;;;;4181543;28;20272;-69
2022/06/19 00:27:20;;;;;;;12.10;3.67;;;17.80;65.90;;;;;;4182039;28;20188;-70
2022/06/19 00:29:20;;;;;;;11.23;3.80;;;17.90;64.10;;;;;;4181372;28;20196;-70
2022/06/19 00:31:21;;;;;;;10.10;3.77;;;17.90;64.00;;;;;;4181220;28;20626;-71
2022/06/19 00:33:22;;;;;;;7.27;3.27;;;17.90;63.90;;;;;;4181483;28;20192;-70
2022/06/19 00:35:22;;;;;;;9.33;3.63;;;17.90;63.30;;;;;;4180943;28;20215;-70
2022/06/19 00:37:23;;;;;;;11.33;3.07;;;18.00;63.40;;;;;;4181068;28;20180;-70
2022/06/19 00:39:23;;;;;;;10.47;3.50;;;17.90;64.20;;;;;;4181601;28;20617;-71
2022/06/19 00:41:25;;;;;;;13.93;3.37;;;17.90;64.60;;;;;;4181384;28;20184;-70
2022/06/19 00:43:26;;;;;;;9.40;3.47;;;17.80;65.00;;;;;;4181341;28;20180;-70
2022/06/19 00:45:30;;;;;;;11.63;3.30;;;17.70;65.70;;;;;;4180301;28;20197;-71
2022/06/19 00:47:35;;;;;;;11.77;3.63;;;17.70;65.50;;;;;;4181394;28;20755;-71
2022/06/19 00:49:45;;;;;;;7.03;3.07;;;17.80;64.90;;;;;;4180929;28;20183;-70
2022/06/19 00:51:48;;;;;;;8.10;3.10;;;17.70;66.20;;;;;;4179881;28;20282;-70
2022/06/19 00:53:48;;;;;;;6.97;3.30;;;17.80;66.00;;;;;;4181481;28;20173;-70
2022/06/19 00:55:50;;;;;;;8.20;3.37;;;17.70;65.10;;;;;;4170166;28;20208;-71
2022/06/19 00:57:58;;;;;;;9.57;3.40;;;17.70;65.10;;;;;;4164593;28;20181;-71
2022/06/19 01:00:08;;;;;;;8.73;2.67;;;17.70;65.60;;;;;;4164414;28;20172;-70
2022/06/19 01:02:09;;;;;;;10.10;3.20;;;17.60;65.70;;;;;;4164977;28;20181;-70
2022/06/19 01:04:18;;;;;;;9.40;3.47;;;17.80;65.40;;;;;;4164397;28;20204;-71
2022/06/19 01:06:20;;;;;;;8.13;3.83;;;17.70;65.50;;;;;;4163884;28;20211;-70
2022/06/19 01:08:21;;;;;;;8.30;3.40;;;17.60;66.20;;;;;;4164700;28;20196;-70
2022/06/19 01:10:22;;;;;;;8.83;3.40;;;17.60;67.10;;;;;;4164975;28;20258;-70
2022/06/19 01:12:24;;;;;;;16.30;4.47;;;17.50;68.00;;;;;;4164534;28;20238;-71
2022/06/19 01:14:26;;;;;;;8.77;3.73;;;17.40;67.50;;;;;;4164809;28;20189;-71
2022/06/19 01:16:27;;;;;;;12.43;3.63;;;17.40;67.60;;;;;;4163719;28;20216;-71
2022/06/19 01:18:32;;;;;;;16.53;3.60;;;17.40;67.90;;;;;;4163976;28;20188;-71
2022/06/19 01:20:34;;;;;;;10.67;3.77;;;17.40;68.30;;;;;;4164557;28;20192;-71
2022/06/19 01:23:01;;;;;;;9.87;3.80;;;17.40;68.50;;;;;;4164243;28;20220;-71
2022/06/19 01:25:06;;;;;;;10.93;3.83;;;17.30;68.60;;;;;;4164191;28;20204;-69
2022/06/19 01:28:45;;;;;;;9.30;3.80;;;17.40;68.10;;;;;;4164117;28;20230;-71
2022/06/19 01:29:33;;;;;;;14.37;3.97;;;17.50;67.30;;;;;;4164663;28;20287;-70
2022/06/19 01:31:48;;;;;;;6.47;3.30;;;17.60;66.60;;;;;;4162762;28;20177;-71
2022/06/19 01:33:55;;;;;;;11.37;3.67;;;17.50;67.10;;;;;;4164013;28;20220;-71
2022/06/19 01:35:57;;;;;;;8.13;3.63;;;17.50;66.90;;;;;;4166147;28;20620;-70
2022/06/19 01:37:58;;;;;;;11.07;4.40;;;17.50;67.00;;;;;;4181168;28;20708;-71
2022/06/19 01:40:09;;;;;;;15.73;4.00;;;17.40;67.20;;;;;;4180859;28;20187;-70
2022/06/19 01:42:11;;;;;;;9.97;3.23;;;17.50;66.90;;;;;;4179998;28;20918;-71
2022/06/19 01:44:11;;;;;;;5.77;2.77;;;17.50;66.60;;;;;;4180344;28;20208;-72
2022/06/19 01:46:14;;;;;;;11.63;3.77;;;17.60;65.90;;;;;;4179990;28;20739;-71
2022/06/19 01:48:15;;;;;;;7.07;3.23;;;17.70;66.30;;;;;;4180444;28;20185;-71
2022/06/19 01:50:23;;;;;;;10.70;3.30;;;17.60;66.90;;;;;;4180331;28;20199;-71
2022/06/19 01:52:27;;;;;;;10.10;3.67;;;17.60;66.50;;;;;;4180275;28;20263;-71
2022/06/19 01:54:42;;;;;;;11.43;3.97;;;17.60;66.70;;;;;;4179389;28;20199;-71
2022/06/19 01:56:44;;;;;;;8.33;2.73;;;17.60;66.90;;;;;;4180264;28;20265;-71
2022/06/19 01:58:50;;;;;;;9.10;2.93;;;17.60;66.30;;;;;;4180869;28;20172;-71
2022/06/19 02:00:51;;;;;;;9.30;3.00;;;17.90;63.10;;;;;;4180732;28;20257;-70
2022/06/19 02:03:28;;;;;;;9.87;3.23;;;18.30;61.60;;;;;;4180898;28;20650;-71
2022/06/19 02:05:30;;;;;;;6.83;3.13;;;18.40;61.10;;;;;;4173645;28;20230;-71
2022/06/19 02:07:31;;;;;;;12.73;4.30;;;18.50;61.70;;;;;;4179051;28;20185;-71
2022/06/19 02:09:34;;;;;;;9.57;3.97;;;18.40;60.40;;;;;;4175116;28;20208;-71
2022/06/19 02:11:35;;;;;;;11.67;2.90;;;18.50;60.50;;;;;;4183126;28;20199;-72
2022/06/19 02:13:37;;;;;;;9.80;3.27;;;18.60;60.10;;;;;;4181751;28;20215;-71
2022/06/19 02:15:38;;;;;;;18.90;3.07;;;18.70;59.50;;;;;;4182527;28;20214;-72
2022/06/19 02:17:52;;;;;;;10.00;3.60;;;18.90;58.10;;;;;;4183245;28;20874;-72
2022/06/19 02:19:53;;;;;;;9.10;3.03;;;19.10;56.80;;;;;;4183265;28;20713;-71
2022/06/19 02:21:54;;;;;;;11.80;3.37;;;19.30;56.20;;;;;;4183683;28;20192;-72
2022/06/19 02:23:55;;;;;;;13.57;3.33;;;19.40;56.10;;;;;;4183240;28;20242;-71
2022/06/19 02:25:57;;;;;;;15.53;3.40;;;19.40;55.80;;;;;;4182762;28;20212;-72
2022/06/19 02:28:01;;;;;;;15.30;3.23;;;19.40;56.60;;;;;;4183021;28;20721;-72
2022/06/19 02:30:05;;;;;;;17.43;3.97;;;19.20;58.20;;;;;;4183295;28;20233;-71
2022/06/19 02:32:16;;;;;;;14.03;3.50;;;19.10;58.00;;;;;;4183880;28;20176;-71
2022/06/19 02:34:38;;;;;;;6.73;2.87;;;19.30;57.70;;;;;;4183171;28;20179;-72
2022/06/19 02:36:40;;;;;;;11.80;3.17;;;19.10;57.70;;;;;;4181222;28;20225;-72
2022/06/19 02:38:40;;;;;;;15.67;3.67;;;19.10;57.30;;;;;;4181955;28;20192;-70
2022/06/19 02:40:50;;;;;;;10.13;3.47;;;19.10;57.70;;;;;;4183656;28;20246;-71
2022/06/19 02:42:50;;;;;;;9.77;3.33;;;19.00;59.10;;;;;;4184646;28;20176;-71
2022/06/19 02:44:54;;;;;;;18.27;3.70;;;18.70;61.10;;;;;;4183679;28;20191;-71
2022/06/19 02:46:55;;;;;;;11.10;3.70;;;18.50;62.00;;;;;;4182519;28;20195;-71
2022/06/19 02:48:55;;;;;;;6.20;3.30;;;18.40;63.40;;;;;;4183326;28;20184;-71
2022/06/19 02:50:58;;;;;;;12.33;3.40;;;18.40;63.30;;;;;;4183669;28;20191;-71
2022/06/19 02:52:59;;;;;;;7.60;3.20;;;18.30;63.40;;;;;;4182301;28;20181;-72
2022/06/19 02:55:00;;;;;;;10.77;3.50;;;18.40;63.70;;;;;;4177400;28;20703;-72
2022/06/19 02:57:01;;;;;;;10.00;2.87;;;18.30;63.60;;;;;;4165512;28;20771;-71
2022/06/19 02:59:02;;;;;;;13.17;3.67;;;18.30;63.40;;;;;;4167141;28;20812;-72
2022/06/19 03:01:02;;;;;;;10.67;3.53;;;18.30;63.30;;;;;;4166814;28;20185;-72
2022/06/19 03:03:13;;;;;;;8.53;3.30;;;18.30;62.60;;;;;;4166645;28;20181;-72
2022/06/19 03:05:26;;;;;;;7.73;2.67;;;18.20;62.40;;;;;;4165974;28;20209;-72
2022/06/19 03:07:27;;;;;;;7.27;3.23;;;18.30;62.70;;;;;;4166315;28;20655;-71
2022/06/19 03:09:27;;;;;;;10.87;3.73;;;18.40;62.40;;;;;;4166685;28;20185;-71
2022/06/19 03:11:28;;;;;;;13.67;3.70;;;18.40;62.30;;;;;;4166019;28;20189;-71
2022/06/19 03:13:28;;;;;;;12.37;4.33;;;18.40;62.20;;;;;;4166492;28;20550;-72
2022/06/19 03:15:29;;;;;;;9.10;3.73;;;18.50;62.00;;;;;;4165618;28;20209;-72
2022/06/19 03:17:30;;;;;;;11.90;3.37;;;18.50;61.90;;;;;;4166237;28;20177;-72
2022/06/19 03:19:30;;;;;;;12.20;3.57;;;18.50;62.20;;;;;;4165861;28;20181;-72
2022/06/19 03:21:31;;;;;;;14.13;3.30;;;18.50;62.90;;;;;;4164651;28;20675;-72
2022/06/19 03:23:31;;;;;;;13.87;3.83;;;18.50;62.50;;;;;;4163777;28;20181;-71
2022/06/19 03:25:32;;;;;;;10.33;3.70;;;18.50;62.60;;;;;;4163022;28;20200;-72
2022/06/19 03:27:33;;;;;;;9.03;3.43;;;18.50;62.30;;;;;;4163626;28;20212;-71
2022/06/19 03:29:33;;;;;;;12.00;3.33;;;18.60;62.30;;;;;;4163459;28;20574;-72
2022/06/19 03:31:34;;;;;;;9.57;3.80;;;18.50;62.30;;;;;;4163431;28;20272;-72
2022/06/19 03:33:35;;;;;;;8.60;3.87;;;18.50;62.40;;;;;;4162295;28;20268;-72
2022/06/19 03:35:35;;;;;;;8.83;3.77;;;18.50;63.90;;;;;;4162974;28;20231;-71
2022/06/19 03:37:36;;;;;;;14.60;4.03;;;18.50;63.10;;;;;;4164081;28;20173;-72
2022/06/19 03:39:36;;;;;;;10.03;3.50;;;18.50;63.40;;;;;;4179599;28;20268;-72
2022/06/19 03:41:38;;;;;;;12.27;3.90;;;18.50;63.40;;;;;;4179798;28;20230;-72
2022/06/19 03:43:39;;;;;;;14.57;3.97;;;18.60;62.80;;;;;;4179881;28;20573;-72
2022/06/19 03:45:40;;;;;;;9.13;4.23;;;18.60;62.30;;;;;;4179104;28;20226;-72
2022/06/19 03:47:41;;;;;;;12.13;3.47;;;18.70;61.50;;;;;;4179721;28;20180;-71
2022/06/19 03:49:42;;;;;;;16.60;4.40;;;18.80;61.10;;;;;;4179683;28;20207;-71
2022/06/19 03:51:42;;;;;;;9.30;3.70;;;18.80;62.10;;;;;;4179657;28;20260;-72
2022/06/19 03:53:45;;;;;;;9.40;3.70;;;18.80;62.10;;;;;;4179557;28;20210;-72
2022/06/19 03:55:47;;;;;;;11.67;3.67;;;18.90;61.90;;;;;;4178704;28;20250;-72
2022/06/19 03:57:47;;;;;;;17.03;4.43;;;18.90;61.90;;;;;;4179508;28;20255;-73
2022/06/19 03:59:48;;;;;;;7.83;3.40;;;19.00;61.30;;;;;;4179483;28;20246;-72
2022/06/19 04:01:48;;;;;;;11.13;3.53;;;19.20;59.90;;;;;;4179399;28;20177;-72
2022/06/19 04:03:51;;;;;;;16.50;4.37;;;19.30;60.00;;;;;;4179593;28;20654;-72
2022/06/19 04:05:51;;;;;;;8.77;3.43;;;19.50;58.60;;;;;;4178587;28;20229;-72
2022/06/19 04:07:52;;;;;;;11.50;4.30;;;19.70;58.20;;;;;;4179360;28;20184;-72
2022/06/19 04:09:59;;;;;;;10.43;3.97;;;19.80;57.70;;;;;;4179247;28;20188;-73
2022/06/19 04:11:59;;;;;;;14.00;4.43;;;19.90;57.80;;;;;;4179321;28;20208;-72
2022/06/19 04:14:00;;;;;;;14.60;4.37;;;20.30;55.90;;;;;;4179310;28;20187;-72
2022/06/19 04:16:02;;;;;;;13.23;4.03;;;20.40;55.70;;;;;;4178509;28;20254;-72
2022/06/19 04:18:02;;;;;;;9.53;3.70;;;20.40;55.70;;;;;;4179105;28;20706;-72
2022/06/19 04:20:04;;;;;;;12.33;3.97;;;20.40;55.70;;;;;;4179147;28;20172;-72
2022/06/19 04:22:04;;;;;;;10.10;4.23;;;20.40;55.90;;;;;;4171712;28;20686;-73
2022/06/19 04:24:05;;;;;;;9.57;4.33;;;20.50;55.60;;;;;;4164701;28;20219;-72
2022/06/19 04:26:10;;;;;;;10.77;4.70;;;20.40;56.60;;;;;;4175714;28;20604;-72
2022/06/19 04:28:11;;;;;;;8.77;3.70;;;20.40;57.10;;;;;;4178958;28;20184;-72
2022/06/19 04:30:13;;;;;;;9.00;3.60;;;20.40;56.50;;;;;;4177640;28;20184;-72
2022/06/19 04:32:13;;;;;;;11.63;4.07;;;20.40;57.70;;;;;;4178554;28;20184;-73
2022/06/19 04:34:14;;;;;;;15.20;4.63;;;20.40;56.40;;;;;;4179189;28;20203;-72
2022/06/19 04:36:18;;;;;;;16.87;4.57;;;20.50;58.00;;;;;;4178347;28;20212;-73
2022/06/19 04:38:18;;;;;;;13.97;4.47;;;20.40;59.20;;;;;;4178913;28;20237;-73
2022/06/19 04:40:19;;;;;;;11.17;4.30;;;20.20;61.10;;;;;;4179029;28;20260;-73
2022/06/19 04:42:19;;;;;;;9.97;4.53;;;20.10;61.70;;;;;;4177892;28;20644;-73
2022/06/19 04:44:20;;;;;;;11.83;4.13;;;20.20;59.20;;;;;;4179239;28;20184;-73
2022/06/19 04:46:21;;;;;;;10.13;4.20;;;20.40;57.90;;;;;;4178445;28;20287;-72
2022/06/19 04:48:23;;;;;;;13.77;5.03;;;20.60;57.70;;;;;;4178985;28;20180;-73
2022/06/19 04:50:24;;;;;;;8.77;4.67;;;20.80;57.50;;;;;;4178747;28;20259;-73
2022/06/19 04:52:24;;;;;;;9.60;4.60;;;20.70;58.80;;;;;;4168637;28;20184;-73
2022/06/19 04:54:25;;;;;;;9.50;4.27;;;20.80;57.40;;;;;;4162183;28;20213;-73
2022/06/19 04:56:26;;;;;;;7.63;4.10;;;20.80;57.20;;;;;;4161769;28;20296;-73
2022/06/19 04:58:26;;;;;;;14.03;4.43;;;21.00;57.70;;;;;;4162169;28;20196;-73
2022/06/19 05:00:27;;;;;;;11.93;4.70;;;21.10;56.50;;;;;;4162300;28;20263;-73
2022/06/19 05:02:28;;;;;;;14.37;5.10;;;21.20;56.50;;;;;;4162146;28;20176;-73
2022/06/19 05:04:28;;;;;;;8.13;4.50;;;21.00;58.60;;;;;;4162186;28;20272;-73
2022/06/19 05:06:29;;;;;;;11.10;5.00;;;20.90;60.10;;;;;;4161499;28;20200;-73
2022/06/19 05:08:30;;;;;;;8.60;4.67;;;20.80;60.40;;;;;;4162020;28;20260;-73
2022/06/19 05:10:31;;;;;;;8.27;4.40;;;20.80;60.80;;;;;;4162082;28;20181;-73
2022/06/19 05:12:31;;;;;;;9.80;4.60;;;20.90;60.50;;;;;;4162009;28;20545;-73
2022/06/19 05:14:32;;;;;;;10.30;4.83;;;20.80;61.80;;;;;;4162083;28;20185;-72
2022/06/19 05:16:32;;;;;;;13.93;5.47;;;20.90;61.50;;;;;;4161156;28;20746;-73
2022/06/19 05:18:34;;;;;;;9.83;5.00;;;20.80;61.50;;;;;;4162088;28;20177;-72
2022/06/19 05:20:35;;;;;;;12.70;4.83;;;20.70;62.00;;;;;;4161882;28;20185;-73
2022/06/19 05:22:35;;;;;;;8.70;4.83;;;20.70;63.20;;;;;;4162050;28;20188;-73
2022/06/19 05:24:36;;;;;;;12.67;4.73;;;20.70;62.50;;;;;;4161803;28;20196;-73
2022/06/19 05:26:36;;;;;;;13.23;5.03;;;20.70;61.70;;;;;;4161244;28;20832;-73
2022/06/19 05:28:37;;;;;;;9.00;4.80;;;20.40;63.10;;;;;;4161964;28;20277;-73
2022/06/19 05:30:38;;;;;;;7.40;4.80;;;20.30;64.30;;;;;;4168214;28;20671;-73
2022/06/19 05:32:39;;;;;;;13.17;5.17;;;20.30;65.00;;;;;;4178288;28;20187;-73
2022/06/19 05:34:39;;;;;;;8.30;5.07;;;20.50;64.40;;;;;;4178414;28;20216;-73
2022/06/19 05:36:40;;;;;;;9.60;5.17;;;20.50;64.60;;;;;;4177592;28;20281;-72
2022/06/19 05:38:41;;;;;;;13.50;5.10;;;20.60;64.30;;;;;;4178291;28;20670;-73
2022/06/19 05:40:41;;;;;;;12.63;5.80;;;20.60;64.80;;;;;;4178540;28;20311;-73
2022/06/19 05:42:43;;;;;;;9.27;5.20;;;20.70;64.60;;;;;;4178615;28;20177;-73
2022/06/19 05:44:44;;;;;;;12.07;5.63;;;20.60;65.60;;;;;;4180255;28;20647;-72
2022/06/19 05:46:48;;;;;;;12.27;6.10;;;20.60;65.10;;;;;;4181064;28;20200;-72
2022/06/19 05:48:50;;;;;;;11.10;5.80;;;20.70;65.00;;;;;;4181538;28;20259;-72
2022/06/19 05:51:07;;;;;;;9.33;5.70;;;20.70;65.20;;;;;;4181452;28;20208;-72
2022/06/19 05:53:07;;;;;;;10.77;5.37;;;20.70;66.20;;;;;;4181333;28;20550;-72
2022/06/19 05:55:12;;;;;;;14.57;5.80;;;20.50;67.40;;;;;;4181136;28;20180;-71
2022/06/19 05:57:13;;;;;;;11.10;5.93;;;20.60;66.40;;;;;;4181184;28;20168;-72
2022/06/19 05:59:13;;;;;;;12.97;7.57;;;20.60;66.00;;;;;;4181344;28;20218;-73
2022/06/19 06:01:16;;;;;;;8.53;5.17;;;20.80;65.90;;;;;;4181169;28;20177;-73
2022/06/19 06:03:19;;;;;;;9.90;6.40;;;20.80;65.30;;;;;;4181245;28;20180;-73
2022/06/19 06:05:20;;;;;;;11.00;5.90;;;21.00;65.00;;;;;;4180914;28;20293;-71
2022/06/19 06:07:20;;;;;;;15.73;5.93;;;21.20;63.70;;;;;;4181207;28;20196;-73
2022/06/19 06:09:21;;;;;;;9.07;4.97;;;21.50;62.30;;;;;;4181088;28;20180;-73
2022/06/19 06:11:22;;;;;;;16.57;5.90;;;21.50;62.20;;;;;;4181152;28;20177;-73
2022/06/19 06:13:23;;;;;;;8.97;6.47;;;21.70;61.90;;;;;;4181142;28;20212;-73
2022/06/19 06:15:24;;;;;;;17.63;6.10;;;21.70;62.10;;;;;;4180312;28;20782;-73
2022/06/19 06:17:24;;;;;;;11.80;5.03;;;21.80;61.80;;;;;;4180997;28;20690;-73
2022/06/19 06:19:25;;;;;;;8.13;4.93;;;21.90;61.40;;;;;;4181050;28;20253;-72
2022/06/19 06:21:25;;;;;;;14.10;5.83;;;22.10;60.70;;;;;;4180788;28;20196;-73
2022/06/19 06:23:27;;;;;;;18.77;5.73;;;22.30;59.50;;;;;;4181005;28;20660;-73
2022/06/19 06:25:27;;;;;;;9.43;5.50;;;22.50;58.60;;;;;;4180365;28;20240;-73
2022/06/19 06:27:28;;;;;;;13.17;5.70;;;22.70;57.40;;;;;;4180924;28;20293;-73
2022/06/19 06:29:28;;;;;;;13.33;6.13;;;22.90;57.10;;;;;;4180998;28;20176;-73
2022/06/19 06:31:29;;;;;;;11.80;6.17;;;23.00;57.00;;;;;;4180918;28;20176;-73
2022/06/19 06:33:30;;;;;;;11.63;5.60;;;23.20;55.40;;;;;;4180926;28;20228;-73
2022/06/19 06:35:30;;;;;;;10.50;5.60;;;23.40;55.50;;;;;;4180144;28;20214;-73
2022/06/19 06:37:31;;;;;;;9.77;5.63;;;23.80;52.20;;;;;;4180771;28;20267;-73
2022/06/19 06:39:32;;;;;;;10.70;5.90;;;24.10;51.90;;;;;;4180749;28;20233;-73
2022/06/19 06:41:32;;;;;;;12.33;6.93;;;24.20;50.50;;;;;;4179558;28;20583;-73
2022/06/19 06:43:35;;;;;;;12.23;5.93;;;24.30;50.50;;;;;;4180981;28;20173;-73
2022/06/19 06:45:36;;;;;;;12.37;6.57;;;24.40;50.30;;;;;;4180270;28;20223;-72
2022/06/19 06:47:37;;;;;;;22.50;20.43;;;24.90;48.70;;;;;;4171516;28;20180;-73
2022/06/19 06:49:37;;;;;;;13.80;7.43;;;25.30;47.30;;;;;;4164181;28;20264;-73
2022/06/19 06:51:38;;;;;;;11.33;6.03;;;25.50;45.80;;;;;;4162652;28;20217;-73
2022/06/19 06:53:39;;;;;;;41.77;38.23;;;25.70;46.10;;;;;;4163995;28;20522;-72
2022/06/19 06:55:44;;;;;;;11.40;5.97;;;26.00;42.20;;;;;;4161886;28;20326;-73
2022/06/19 06:57:45;;;;;;;170.07;160.97;;;26.20;42.70;;;;;;4163999;28;20648;-72
2022/06/19 06:59:45;;;;;;;14.10;7.73;;;26.40;41.80;;;;;;4164009;28;20188;-72
2022/06/19 07:01:46;;;;;;;12.93;9.73;;;26.60;41.10;;;;;;4162719;28;20312;-73
2022/06/19 07:03:52;;;;;;;11.93;6.10;;;26.70;41.10;;;;;;4163903;28;20711;-73
2022/06/19 07:05:52;;;;;;;12.10;6.13;;;27.00;40.90;;;;;;4163526;28;20786;-73
2022/06/19 07:07:53;;;;;;;22.17;20.30;;;27.00;39.80;;;;;;4163863;28;20189;-74
2022/06/19 07:09:53;;;;;;;13.53;6.40;;;27.00;39.30;;;;;;4163872;28;20185;-73
2022/06/19 07:11:54;;;;;;;11.60;7.17;;;27.10;39.90;;;;;;4163784;28;20193;-73
2022/06/19 07:13:55;;;;;;;16.17;13.27;;;27.20;39.40;;;;;;4163744;28;20557;-73
2022/06/19 07:15:55;;;;;;;38.60;35.67;;;27.40;38.70;;;;;;4162840;28;20220;-73
2022/06/19 07:17:56;;;;;;;9.73;6.23;;;27.40;37.40;;;;;;4163454;28;20660;-73
2022/06/19 07:19:56;;;;;;;12.23;6.73;;;27.50;38.00;;;;;;4163482;28;20196;-73
2022/06/19 07:21:57;;;;;;;11.27;6.63;;;27.60;37.70;;;;;;4163812;28;20552;-73
2022/06/19 07:23:57;;;;;;;17.80;15.93;;;27.70;37.20;;;;;;4163515;28;20574;-73
2022/06/19 07:25:58;;;;;;;15.20;12.33;;;27.70;37.00;;;;;;4177873;28;20237;-73
2022/06/19 07:28:01;;;;;;;15.20;8.57;;;27.80;36.80;;;;;;4179998;28;20564;-73
2022/06/19 07:30:03;;;;;;;11.63;6.80;;;27.80;37.10;;;;;;4179900;28;20251;-74
2022/06/19 07:32:04;;;;;;;17.27;9.43;;;27.90;36.60;;;;;;4179915;28;20204;-73
2022/06/19 07:34:05;;;;;;;17.77;16.17;;;27.90;36.20;;;;;;4179893;28;20176;-73
2022/06/19 07:36:08;;;;;;;17.97;11.80;;;28.10;36.30;;;;;;4177836;28;20259;-72
2022/06/19 07:38:09;;;;;;;35.80;32.87;;;28.10;36.30;;;;;;4179852;28;20176;-73
2022/06/19 07:40:17;;;;;;;13.57;8.43;;;28.10;36.30;;;;;;4179762;28;20204;-72
2022/06/19 07:42:18;;;;;;;59.27;55.20;;;28.20;36.30;;;;;;4179778;28;20713;-72
2022/06/19 07:44:19;;;;;;;16.47;11.70;;;28.30;36.60;;;;;;4179822;28;20172;-73
2022/06/19 07:46:20;;;;;;;13.47;6.87;;;28.30;36.50;;;;;;4178937;28;20722;-72
2022/06/19 07:50:39;;;;;;;15.23;12.30;;;28.40;35.40;;;;;;4179804;28;20171;-72
2022/06/19 07:52:42;;;;;;;27.17;24.70;;;28.50;36.00;;;;;;4179656;28;20577;-71
2022/06/19 07:54:43;;;;;;;61.27;57.60;;;28.40;34.20;;;;;;4179780;28;20218;-72
2022/06/19 07:56:43;;;;;;;7.67;6.90;;;28.40;34.70;;;;;;4178834;28;20216;-72
2022/06/19 07:58:44;;;;;;;30.13;27.47;;;28.30;36.70;;;;;;4179493;28;20177;-72
2022/06/19 08:00:45;;;;;;;17.87;16.07;;;28.50;35.10;;;;;;4179498;28;20172;-72
2022/06/19 08:02:48;;;;;;;15.73;11.50;;;28.40;34.90;;;;;;4179386;28;20187;-72
2022/06/19 08:04:49;;;;;;;14.50;11.57;;;28.60;35.10;;;;;;4179404;28;20177;-72
2022/06/19 08:06:50;;;;;;;34.43;31.73;;;28.50;34.70;;;;;;4178219;28;20219;-72
2022/06/19 08:08:50;;;;;;;10.97;7.97;;;28.60;35.00;;;;;;4177919;28;20703;-72
2022/06/19 08:10:54;;;;;;;15.87;8.87;;;28.50;35.10;;;;;;4179366;28;20183;-72
2022/06/19 08:12:55;;;;;;;34.83;32.53;;;28.70;34.40;;;;;;4179246;28;20259;-72
2022/06/19 08:14:56;;;;;;;14.13;10.17;;;28.70;34.20;;;;;;4179166;28;20184;-72
2022/06/19 08:16:56;;;;;;;15.50;13.90;;;28.80;34.10;;;;;;4178421;28;20697;-72
2022/06/19 08:18:57;;;;;;;12.93;7.97;;;28.90;34.40;;;;;;4179143;28;20179;-71
2022/06/19 08:20:57;;;;;;;13.47;10.10;;;29.00;34.50;;;;;;4179121;28;20180;-71
2022/06/19 08:22:58;;;;;;;17.30;15.73;;;29.30;34.30;;;;;;4179148;28;20184;-72
2022/06/19 08:24:58;;;;;;;12.07;8.93;;;29.50;34.50;;;;;;4178853;28;20259;-72
2022/06/19 08:27:05;;;;;;;14.13;11.73;;;29.30;33.30;;;;;;4178867;28;20181;-72
2022/06/19 08:29:05;;;;;;;25.73;23.27;;;29.00;34.00;;;;;;4179020;28;20187;-71
2022/06/19 08:31:06;;;;;;;26.60;24.60;;;29.00;34.40;;;;;;4179185;28;20547;-72
2022/06/19 08:33:07;;;;;;;32.10;29.60;;;29.10;33.50;;;;;;4178967;28;20184;-71
2022/06/19 08:35:09;;;;;;;15.20;11.40;;;28.90;34.00;;;;;;4178503;28;20195;-72
2022/06/19 08:37:11;;;;;;;33.17;30.43;;;28.90;35.00;;;;;;4178682;28;20197;-72
2022/06/19 08:39:16;;;;;;;34.20;31.67;;;29.10;33.70;;;;;;4178847;28;20255;-71
2022/06/19 08:41:29;;;;;;;42.43;39.40;;;29.10;33.80;;;;;;4179202;28;20180;-72
2022/06/19 08:44:07;;;;;;;14.43;11.00;;;29.10;33.30;;;;;;4174181;28;20173;-71
2022/06/19 08:46:10;;;;;;;18.93;17.23;;;29.10;34.20;;;;;;4160510;28;20633;-71
2022/06/19 08:48:38;;;;;;;23.03;20.93;;;29.20;32.80;;;;;;4162608;28;20207;-71
2022/06/19 08:50:49;;;;;;;16.40;12.13;;;29.20;32.10;;;;;;4162517;28;20180;-71
2022/06/19 08:53:08;;;;;;;21.43;19.77;;;29.40;32.80;;;;;;4162556;28;20180;-72
2022/06/19 08:55:46;;;;;;;11.80;7.60;;;29.30;33.00;;;;;;4161823;28;20185;-71
2022/06/19 08:57:52;;;;;;;20.73;15.67;;;29.40;33.10;;;;;;4153097;28;20192;-71
2022/06/19 09:00:11;;;;;;;14.57;9.13;;;29.50;32.10;;;;;;4162108;28;20180;-71
2022/06/19 09:02:28;;;;;;;12.07;10.33;;;29.70;32.90;;;;;;4162006;28;20652;-71
2022/06/19 09:06:54;;;;;;;15.57;12.27;;;29.70;31.00;;;;;;4161493;28;20246;-72
2022/06/19 09:09:21;;;;;;;42.67;39.87;;;29.80;32.00;;;;;;4162242;28;20247;-72
2022/06/19 09:11:45;;;;;;;21.60;16.83;;;29.70;31.00;;;;;;4161308;28;20185;-72
2022/06/19 09:14:04;;;;;;;36.20;33.23;;;29.60;30.50;;;;;;4161279;28;20180;-76
2022/06/19 09:16:39;;;;;;;15.17;10.53;;;29.50;30.90;;;;;;4175077;28;20307;-72
2022/06/19 09:18:43;;;;;;;13.77;9.63;;;29.60;30.80;;;;;;4170885;28;20234;-72
2022/06/19 09:21:08;;;;;;;16.97;15.40;;;29.40;31.70;;;;;;4178261;28;20723;-72
2022/06/19 09:23:27;;;;;;;33.37;30.57;;;29.40;31.40;;;;;;4172046;28;20195;-73
2022/06/19 09:25:52;;;;;;;32.33;29.60;;;29.50;31.50;;;;;;4181361;28;20211;-72
2022/06/19 09:27:56;;;;;;;76.17;70.97;;;29.60;30.70;;;;;;4181489;28;20289;-72
2022/06/19 09:30:10;;;;;;;54.10;50.50;;;29.50;30.80;;;;;;4181890;28;20249;-70
2022/06/19 09:32:42;;;;;;;12.03;10.13;;;29.50;31.70;;;;;;4181928;28;20175;-72
2022/06/19 09:34:56;;;;;;;51.40;47.43;;;29.80;30.30;;;;;;4169343;28;20243;-72
2022/06/19 09:37:09;;;;;;;65.63;61.30;;;29.80;30.70;;;;;;4181442;28;20208;-71
2022/06/19 09:39:19;;;;;;;23.60;21.77;;;29.60;32.20;;;;;;4181696;28;20195;-71
2022/06/19 09:41:27;;;;;;;40.03;37.30;;;29.80;32.30;;;;;;4181788;28;20176;-72
2022/06/19 09:43:43;;;;;;;128.63;120.50;;;29.90;32.20;;;;;;4181749;28;20673;-72
2022/06/19 09:45:53;;;;;;;51.43;47.87;;;29.90;31.30;;;;;;4180920;28;20578;-71
2022/06/19 09:47:56;;;;;;;84.50;79.13;;;29.80;30.50;;;;;;4181591;28;20207;-71
2022/06/19 09:50:05;;;;;;;15.43;13.80;;;30.10;29.00;;;;;;4181650;28;20643;-72
2022/06/19 09:52:31;;;;;;;66.70;62.40;;;30.10;29.60;;;;;;4181920;28;20596;-71
2022/06/19 09:55:01;;;;;;;27.73;24.85;;;30.10;30.00;;;;;;4181905;28;20207;-72
2022/06/19 09:57:15;;;;;;;14.43;12.93;;;30.40;29.10;;;;;;4181454;28;20208;-71
2022/06/19 09:59:33;;;;;;;14.02;11.15;;;30.40;28.50;;;;;;4181469;28;20655;-71
2022/06/19 10:01:34;;;;;;;72.78;68.28;;;30.30;28.90;;;;;;4179065;28;20188;-71
2022/06/19 10:03:39;;;;;;;79.72;74.55;;;30.40;29.60;;;;;;4195522;28;20187;-70
2022/06/19 10:05:42;;;;;;;121.78;114.78;;;30.40;29.60;;;;;;4178395;28;20766;-70
2022/06/19 10:07:51;;;;;;;15.20;13.27;;;30.30;29.70;;;;;;4182006;28;20183;-70
2022/06/19 10:10:09;;;;;;;16.55;9.35;;;30.40;30.00;;;;;;4180744;28;20202;-69
2022/06/19 10:12:18;;;;;;;44.35;41.50;;;30.60;30.00;;;;;;4187308;28;20668;-69
2022/06/19 10:14:38;;;;;;;56.17;52.22;;;30.80;29.10;;;;;;4188088;28;20274;-70
2022/06/19 10:16:47;;;;;;;34.17;31.55;;;30.80;29.20;;;;;;4187739;28;20212;-70
2022/06/19 10:18:52;;;;;;;152.40;143.35;;;31.10;29.20;;;;;;4192608;28;20214;-70
2022/06/19 10:21:08;;;;;;;25.75;23.88;;;30.90;28.90;;;;;;4183225;28;20257;-70
2022/06/19 10:23:24;;;;;;;16.70;14.95;;;31.10;28.60;;;;;;4195640;28;20198;-69
2022/06/19 10:25:39;;;;;;;20.05;17.90;;;30.90;29.10;;;;;;4173478;28;20196;-70
2022/06/19 10:28:05;;;;;;;20.20;12.55;;;30.80;29.30;;;;;;4188156;28;20184;-70
2022/06/19 10:30:18;;;;;;;30.60;28.17;;;30.90;29.50;;;;;;4190252;28;20191;-70
2022/06/19 10:32:45;;;;;;;14.65;10.82;;;31.20;28.80;;;;;;4188476;28;20182;-69
2022/06/19 10:34:52;;;;;;;33.85;30.95;;;31.80;28.70;;;;;;4182286;28;20299;-69
2022/06/19 10:37:01;;;;;;;146.55;137.70;;;31.70;28.50;;;;;;4186031;28;20208;-70
2022/06/19 10:39:22;;;;;;;12.07;8.85;;;31.50;27.70;;;;;;4187941;28;20833;-69
2022/06/19 10:44:25;;;;;;;67.07;63.08;;;32.10;27.80;;;;;;4193991;28;20265;-70
2022/06/19 10:46:26;;;;;;;29.45;26.90;;;32.40;26.90;;;;;;4188481;28;20294;-70